createdAt,value
2023-04-15T00:07:00.591Z,9.99
2023-04-15T00:14:20.105Z,10.00
2023-04-15T00:21:38.202Z,10.02
2023-04-15T00:28:56.323Z,10.02
2023-04-15T00:36:16.846Z,10.02
2023-04-15T00:43:34.964Z,9.91
2023-04-15T00:50:53.059Z,9.91
2023-04-15T00:58:13.780Z,9.98
2023-04-15T01:05:33.795Z,10.01
2023-04-15T01:12:52.620Z,9.97
2023-04-15T01:20:12.817Z,9.98
2023-04-15T01:27:32.561Z,10.00
2023-04-15T01:34:51.040Z,9.93
2023-04-15T01:42:09.415Z,9.96
2023-04-15T01:49:29.253Z,9.95
2023-04-15T01:56:47.676Z,9.79
2023-04-15T02:04:06.003Z,9.74
2023-04-15T02:11:25.725Z,9.76
2023-04-15T02:18:45.242Z,9.63
2023-04-15T02:26:03.520Z,9.50
2023-04-15T02:33:25.274Z,9.52
2023-04-15T02:40:44.036Z,9.44
2023-04-15T02:48:06.302Z,9.46
2023-04-15T02:55:26.416Z,9.39
2023-04-15T03:03:25.521Z,9.30
2023-04-15T03:10:45.963Z,9.19
2023-04-15T03:18:04.674Z,8.98
2023-04-15T03:25:23.061Z,8.98
2023-04-15T03:32:43.032Z,8.92
2023-04-15T03:40:01.609Z,8.80
2023-04-15T03:47:19.927Z,8.67
2023-04-15T03:54:39.532Z,8.43
2023-04-15T04:01:57.818Z,8.15
2023-04-15T04:09:16.016Z,7.90
2023-04-15T04:16:40.968Z,7.95
2023-04-15T04:23:59.250Z,7.87
2023-04-15T04:31:17.501Z,7.93
2023-04-15T04:38:37.093Z,7.78
2023-04-15T04:45:55.362Z,7.63
2023-04-15T04:53:13.606Z,7.63
2023-04-15T05:00:33.192Z,7.72
2023-04-15T05:07:51.544Z,7.66
2023-04-15T05:15:10.961Z,7.56
2023-04-15T05:22:30.808Z,7.52
2023-04-15T05:29:49.065Z,7.55
2023-04-15T05:37:07.291Z,7.41
2023-04-15T05:44:27.042Z,7.58
2023-04-15T05:51:45.890Z,7.82
2023-04-15T05:59:04.345Z,8.07
2023-04-15T06:06:23.851Z,8.33
2023-04-15T06:13:42.147Z,8.70
2023-04-15T06:21:00.566Z,8.59
2023-04-15T06:28:20.592Z,8.68
2023-04-15T06:35:39.415Z,8.94
2023-04-15T06:42:57.602Z,8.61
2023-04-15T06:50:17.862Z,8.74
2023-04-15T06:57:36.326Z,8.62
2023-04-15T07:04:54.548Z,8.92
2023-04-15T07:12:18.386Z,9.21
2023-04-15T07:19:36.710Z,8.80
2023-04-15T07:26:57.200Z,9.22
2023-04-15T07:34:18.375Z,9.34
2023-04-15T07:41:36.820Z,9.29
2023-04-15T07:48:55.194Z,9.12
2023-04-15T07:56:14.908Z,9.32
2023-04-15T08:03:34.236Z,9.58
2023-04-15T08:10:52.991Z,10.46
2023-04-15T08:18:12.546Z,9.97
2023-04-15T08:25:30.746Z,10.89
2023-04-15T08:32:49.233Z,13.16
2023-04-15T08:40:10.925Z,12.60
2023-04-15T08:47:31.682Z,12.78
2023-04-15T08:54:51.390Z,13.78
2023-04-15T09:02:14.021Z,12.93
2023-04-15T09:09:37.578Z,12.03
2023-04-15T09:16:59.848Z,12.71
2023-04-15T09:24:19.888Z,13.73
2023-04-15T09:31:38.456Z,14.29
2023-04-15T09:38:57.519Z,15.29
2023-04-15T09:46:17.030Z,15.46
2023-04-15T09:53:36.752Z,14.97
2023-04-15T10:00:56.519Z,14.02
2023-04-15T10:08:17.212Z,14.59
2023-04-15T10:15:35.907Z,13.37
2023-04-15T10:22:54.614Z,15.19
2023-04-15T10:30:14.736Z,13.94
2023-04-15T10:37:37.316Z,15.24
2023-04-15T10:44:58.427Z,14.32
2023-04-15T10:52:19.246Z,14.03
2023-04-15T10:59:38.792Z,15.46
2023-04-15T11:07:07.062Z,14.43
2023-04-15T11:14:26.982Z,13.97
2023-04-15T11:21:45.134Z,15.13
2023-04-15T11:29:03.704Z,16.65
2023-04-15T11:36:26.687Z,14.63
2023-04-15T11:43:44.920Z,14.94
2023-04-15T11:51:03.871Z,14.62
2023-04-15T11:58:24.694Z,14.11
2023-04-15T12:06:08.771Z,13.85
2023-04-15T12:13:31.086Z,13.51
2023-04-15T12:20:50.219Z,13.84
2023-04-15T12:28:14.588Z,14.18
2023-04-15T12:35:34.199Z,14.46
2023-04-15T12:42:52.358Z,14.37
2023-04-15T12:50:10.998Z,14.87
2023-04-15T12:57:30.714Z,14.97
2023-04-15T13:04:49.630Z,14.97
2023-04-15T13:12:08.925Z,15.12
2023-04-15T13:19:28.838Z,14.96
2023-04-15T13:26:48.528Z,15.13
2023-04-15T13:34:08.332Z,15.14
2023-04-15T13:41:28.175Z,16.03
2023-04-15T13:48:46.645Z,15.54
2023-04-15T13:56:05.939Z,15.39
2023-04-15T14:03:25.950Z,15.64
2023-04-15T14:10:48.613Z,15.55
2023-04-15T14:18:07.094Z,15.46
2023-04-15T14:25:33.777Z,15.53
2023-04-15T14:32:52.772Z,15.10
2023-04-15T14:40:12.585Z,14.80
2023-04-15T14:47:32.352Z,14.64
2023-04-15T14:54:50.629Z,14.40
2023-04-15T15:02:10.573Z,14.42
2023-04-15T15:09:32.000Z,13.94
2023-04-15T15:16:51.747Z,13.91
2023-04-15T15:24:13.227Z,14.46
2023-04-15T15:31:33.314Z,14.93
2023-04-15T15:38:52.287Z,14.94
2023-04-15T15:46:10.843Z,14.39
2023-04-15T15:53:30.623Z,14.39
2023-04-15T16:00:49.220Z,14.23
2023-04-15T16:08:08.030Z,13.89
2023-04-15T16:15:28.016Z,13.80
2023-04-15T16:22:46.238Z,13.71
2023-04-15T16:30:05.092Z,13.63
2023-04-15T16:37:24.844Z,13.40
2023-04-15T16:44:43.062Z,13.02
2023-04-15T16:52:01.222Z,12.96
2023-04-15T16:59:20.969Z,12.92
2023-04-15T17:06:39.540Z,12.90
2023-04-15T17:13:57.918Z,12.95
2023-04-15T17:21:17.676Z,12.82
2023-04-15T17:28:36.293Z,12.73
2023-04-15T17:35:54.508Z,12.38
2023-04-15T17:43:14.501Z,12.22
2023-04-15T17:50:33.011Z,11.92
2023-04-15T17:57:51.452Z,11.62
2023-04-15T18:05:11.990Z,11.31
2023-04-15T18:12:30.618Z,11.12
2023-04-15T18:19:49.331Z,10.98
2023-04-15T18:27:09.665Z,10.90
2023-04-15T18:34:28.444Z,10.83
2023-04-15T18:41:52.030Z,10.76
2023-04-15T18:49:15.376Z,10.70
2023-04-15T18:56:36.946Z,10.63
2023-04-15T19:03:55.461Z,10.45
2023-04-15T19:11:16.012Z,10.27
2023-04-15T19:18:34.831Z,10.27
2023-04-15T19:25:54.086Z,10.07
2023-04-15T19:33:14.575Z,10.08
2023-04-15T19:40:33.889Z,10.06
2023-04-15T19:47:56.764Z,9.97
2023-04-15T19:55:16.844Z,9.94
2023-04-15T20:02:35.472Z,9.79
2023-04-15T20:09:54.188Z,9.81
2023-04-15T20:17:14.350Z,9.80
2023-04-15T20:24:32.781Z,9.79
2023-04-15T20:31:51.212Z,9.83
2023-04-15T20:39:11.397Z,9.77
2023-04-15T20:46:30.025Z,9.68
2023-04-15T20:53:49.293Z,9.52
2023-04-15T21:01:09.289Z,9.52
2023-04-15T21:08:31.850Z,9.47
2023-04-15T21:16:39.648Z,9.47
2023-04-15T21:24:12.797Z,9.40
2023-04-15T22:05:25.405Z,9.07
2023-04-15T22:13:09.735Z,9.01
2023-04-15T22:20:38.790Z,8.97
2023-04-15T22:27:57.186Z,8.91
2023-04-15T22:35:16.026Z,8.97
2023-04-15T22:42:35.747Z,9.03
2023-04-15T22:49:54.238Z,9.00
2023-04-15T22:57:12.533Z,8.93
2023-04-15T23:04:32.528Z,8.80
2023-04-15T23:11:52.385Z,8.95
2023-04-15T23:19:11.095Z,8.71
2023-04-15T23:26:31.282Z,8.45
2023-04-15T23:33:49.636Z,8.31
2023-04-15T23:41:08.996Z,8.12
2023-04-15T23:48:30.226Z,7.99
2023-04-15T23:55:49.282Z,7.76
